Weather at Le Touquet-Côte d'Opale Airport

Public forecast

Using degrees Celsius for public forecast. Weather courtesy of forecast.io.

Current aviation weather report (METAR) for Le Touquet-Côte d'Opale Airport

2024/07/20 04:00 (retrieved 12 minutes ago)

LFAT 200400Z AUTO 00000KT CAVOK 16/15 Q1011

Closest aviation forecast (TAF) to Le Touquet-Côte d'Opale Airport

Forecast is more than 6 hours old.

Closest forecast is Le Havre-Octeville Airport, 83.6 nm (154.8 km) SW.

2024/07/19 18:06 (retrieved 10 hours ago)

TAF LFOH 191800Z 1918/2012 CNL